sensor_id;sensor_type;location;lat;lon;timestamp;temperature;humidity
11246;DHT22;59870;50.106;8.580;2023-09-19T00:00:47;22.40;95.50
11246;DHT22;59870;50.106;8.580;2023-09-19T00:03:16;22.40;95.30
11246;DHT22;59870;50.106;8.580;2023-09-19T00:05:44;22.40;95.40
11246;DHT22;59870;50.106;8.580;2023-09-19T00:08:13;22.30;95.50
11246;DHT22;59870;50.106;8.580;2023-09-19T00:10:42;22.30;95.60
11246;DHT22;59870;50.106;8.580;2023-09-19T00:13:10;22.30;95.60
11246;DHT22;59870;50.106;8.580;2023-09-19T00:15:44;22.30;95.60
11246;DHT22;59870;50.106;8.580;2023-09-19T00:18:19;22.30;95.60
11246;DHT22;59870;50.106;8.580;2023-09-19T00:20:49;22.30;95.60
11246;DHT22;59870;50.106;8.580;2023-09-19T00:23:18;22.30;95.70
11246;DHT22;59870;50.106;8.580;2023-09-19T00:25:46;22.30;95.80
11246;DHT22;59870;50.106;8.580;2023-09-19T00:28:14;22.20;95.80
11246;DHT22;59870;50.106;8.580;2023-09-19T00:30:44;22.30;95.90
11246;DHT22;59870;50.106;8.580;2023-09-19T00:33:12;22.40;96.00
11246;DHT22;59870;50.106;8.580;2023-09-19T00:35:52;22.20;95.90
11246;DHT22;59870;50.106;8.580;2023-09-19T00:38:21;22.50;96.00
11246;DHT22;59870;50.106;8.580;2023-09-19T00:40:54;22.20;95.90
11246;DHT22;59870;50.106;8.580;2023-09-19T00:43:25;22.20;96.00
11246;DHT22;59870;50.106;8.580;2023-09-19T00:45:56;22.10;96.00
11246;DHT22;59870;50.106;8.580;2023-09-19T00:48:24;22.10;96.00
11246;DHT22;59870;50.106;8.580;2023-09-19T00:50:55;22.00;96.10
11246;DHT22;59870;50.106;8.580;2023-09-19T00:53:24;22.00;96.10
11246;DHT22;59870;50.106;8.580;2023-09-19T00:55:52;22.10;96.20
11246;DHT22;59870;50.106;8.580;2023-09-19T00:58:20;22.00;96.20
11246;DHT22;59870;50.106;8.580;2023-09-19T01:00:51;22.10;96.30
11246;DHT22;59870;50.106;8.580;2023-09-19T01:03:20;22.00;96.30
11246;DHT22;59870;50.106;8.580;2023-09-19T01:05:49;22.00;96.40
11246;DHT22;59870;50.106;8.580;2023-09-19T01:08:18;22.00;96.30
11246;DHT22;59870;50.106;8.580;2023-09-19T01:11:03;22.00;96.30
11246;DHT22;59870;50.106;8.580;2023-09-19T01:13:58;22.00;96.30
11246;DHT22;59870;50.106;8.580;2023-09-19T01:22:07;22.00;96.50
11246;DHT22;59870;50.106;8.580;2023-09-19T01:29:49;22.20;96.50
11246;DHT22;59870;50.106;8.580;2023-09-19T01:32:18;22.00;96.40
11246;DHT22;59870;50.106;8.580;2023-09-19T01:34:51;21.90;96.40
11246;DHT22;59870;50.106;8.580;2023-09-19T01:37:21;22.00;96.50
11246;DHT22;59870;50.106;8.580;2023-09-19T01:39:56;21.90;96.50
11246;DHT22;59870;50.106;8.580;2023-09-19T01:51:10;21.90;96.20
11246;DHT22;59870;50.106;8.580;2023-09-19T01:56:19;21.90;96.50
11246;DHT22;59870;50.106;8.580;2023-09-19T01:58:52;21.90;96.50
11246;DHT22;59870;50.106;8.580;2023-09-19T02:01:24;21.90;96.60
11246;DHT22;59870;50.106;8.580;2023-09-19T02:03:52;21.80;96.60
11246;DHT22;59870;50.106;8.580;2023-09-19T02:06:21;21.80;96.70
11246;DHT22;59870;50.106;8.580;2023-09-19T02:08:49;21.80;96.60
11246;DHT22;59870;50.106;8.580;2023-09-19T02:11:16;21.80;96.70
11246;DHT22;59870;50.106;8.580;2023-09-19T02:13:44;21.80;96.80
11246;DHT22;59870;50.106;8.580;2023-09-19T02:16:11;21.80;96.70
11246;DHT22;59870;50.106;8.580;2023-09-19T02:18:40;22.10;96.90
11246;DHT22;59870;50.106;8.580;2023-09-19T02:21:08;21.80;96.80
11246;DHT22;59870;50.106;8.580;2023-09-19T02:23:38;21.80;96.60
11246;DHT22;59870;50.106;8.580;2023-09-19T02:26:07;21.80;96.50
11246;DHT22;59870;50.106;8.580;2023-09-19T02:28:34;21.80;96.50
11246;DHT22;59870;50.106;8.580;2023-09-19T02:31:03;21.80;96.50
11246;DHT22;59870;50.106;8.580;2023-09-19T02:33:32;21.80;96.40
11246;DHT22;59870;50.106;8.580;2023-09-19T02:36:00;21.80;96.70
11246;DHT22;59870;50.106;8.580;2023-09-19T02:38:28;21.80;96.40
11246;DHT22;59870;50.106;8.580;2023-09-19T02:40:56;21.70;96.50
11246;DHT22;59870;50.106;8.580;2023-09-19T02:43:24;21.70;96.40
11246;DHT22;59870;50.106;8.580;2023-09-19T02:45:52;21.70;96.40
11246;DHT22;59870;50.106;8.580;2023-09-19T02:48:22;21.70;96.40
11246;DHT22;59870;50.106;8.580;2023-09-19T02:50:50;21.60;96.40
11246;DHT22;59870;50.106;8.580;2023-09-19T02:53:18;21.60;96.40
11246;DHT22;59870;50.106;8.580;2023-09-19T02:55:49;21.60;96.50
11246;DHT22;59870;50.106;8.580;2023-09-19T02:58:16;21.60;96.50
11246;DHT22;59870;50.106;8.580;2023-09-19T03:00:46;21.60;96.50
11246;DHT22;59870;50.106;8.580;2023-09-19T03:03:15;21.50;96.50
11246;DHT22;59870;50.106;8.580;2023-09-19T03:05:44;21.50;96.50
11246;DHT22;59870;50.106;8.580;2023-09-19T03:08:18;21.50;96.40
11246;DHT22;59870;50.106;8.580;2023-09-19T03:10:48;21.40;96.40
11246;DHT22;59870;50.106;8.580;2023-09-19T03:13:16;21.40;96.50
11246;DHT22;59870;50.106;8.580;2023-09-19T03:15:44;21.40;96.50
11246;DHT22;59870;50.106;8.580;2023-09-19T03:18:15;21.40;96.50
11246;DHT22;59870;50.106;8.580;2023-09-19T03:20:43;21.40;96.50
11246;DHT22;59870;50.106;8.580;2023-09-19T03:23:12;21.30;96.50
11246;DHT22;59870;50.106;8.580;2023-09-19T03:25:40;21.30;96.50
11246;DHT22;59870;50.106;8.580;2023-09-19T03:28:08;21.30;96.40
11246;DHT22;59870;50.106;8.580;2023-09-19T03:30:37;21.30;96.50
11246;DHT22;59870;50.106;8.580;2023-09-19T03:33:06;21.20;96.40
11246;DHT22;59870;50.106;8.580;2023-09-19T03:35:34;21.20;96.50
11246;DHT22;59870;50.106;8.580;2023-09-19T03:38:02;21.20;96.80
11246;DHT22;59870;50.106;8.580;2023-09-19T03:40:30;21.10;96.50
11246;DHT22;59870;50.106;8.580;2023-09-19T03:43:00;21.10;96.60
11246;DHT22;59870;50.106;8.580;2023-09-19T03:45:28;21.00;96.50
11246;DHT22;59870;50.106;8.580;2023-09-19T03:47:55;21.40;96.70
11246;DHT22;59870;50.106;8.580;2023-09-19T03:50:24;21.00;96.50
11246;DHT22;59870;50.106;8.580;2023-09-19T03:52:56;21.00;96.50
11246;DHT22;59870;50.106;8.580;2023-09-19T03:55:24;21.00;96.50
11246;DHT22;59870;50.106;8.580;2023-09-19T03:57:51;20.90;96.40
11246;DHT22;59870;50.106;8.580;2023-09-19T04:00:20;20.90;96.60
11246;DHT22;59870;50.106;8.580;2023-09-19T04:02:49;20.90;96.30
11246;DHT22;59870;50.106;8.580;2023-09-19T04:05:16;20.90;96.20
11246;DHT22;59870;50.106;8.580;2023-09-19T04:07:45;20.90;96.20
11246;DHT22;59870;50.106;8.580;2023-09-19T04:10:13;21.00;96.40
11246;DHT22;59870;50.106;8.580;2023-09-19T04:12:54;20.80;96.20
11246;DHT22;59870;50.106;8.580;2023-09-19T04:15:23;20.80;96.20
11246;DHT22;59870;50.106;8.580;2023-09-19T04:17:53;20.70;96.30
11246;DHT22;59870;50.106;8.580;2023-09-19T04:20:21;20.70;96.40
11246;DHT22;59870;50.106;8.580;2023-09-19T04:22:50;20.70;96.40
11246;DHT22;59870;50.106;8.580;2023-09-19T04:25:18;20.70;96.50
11246;DHT22;59870;50.106;8.580;2023-09-19T04:27:46;20.70;96.20
11246;DHT22;59870;50.106;8.580;2023-09-19T04:30:16;20.70;96.10
11246;DHT22;59870;50.106;8.580;2023-09-19T04:32:43;20.70;96.10
11246;DHT22;59870;50.106;8.580;2023-09-19T04:35:11;20.70;96.10
11246;DHT22;59870;50.106;8.580;2023-09-19T04:37:41;20.70;96.20
11246;DHT22;59870;50.106;8.580;2023-09-19T04:40:10;20.80;96.20
11246;DHT22;59870;50.106;8.580;2023-09-19T04:42:41;20.70;96.10
11246;DHT22;59870;50.106;8.580;2023-09-19T04:45:10;20.60;96.10
11246;DHT22;59870;50.106;8.580;2023-09-19T04:47:38;20.60;96.00
11246;DHT22;59870;50.106;8.580;2023-09-19T04:50:09;20.60;96.10
11246;DHT22;59870;50.106;8.580;2023-09-19T04:52:41;20.60;96.10
11246;DHT22;59870;50.106;8.580;2023-09-19T04:55:16;20.60;96.10
11246;DHT22;59870;50.106;8.580;2023-09-19T04:57:48;20.60;96.10
11246;DHT22;59870;50.106;8.580;2023-09-19T05:00:18;20.60;96.20
11246;DHT22;59870;50.106;8.580;2023-09-19T05:02:49;20.50;96.10
11246;DHT22;59870;50.106;8.580;2023-09-19T05:05:17;20.50;96.10
11246;DHT22;59870;50.106;8.580;2023-09-19T05:07:46;20.80;96.20
11246;DHT22;59870;50.106;8.580;2023-09-19T05:10:15;20.50;96.00
11246;DHT22;59870;50.106;8.580;2023-09-19T05:12:45;20.50;96.10
11246;DHT22;59870;50.106;8.580;2023-09-19T05:15:15;20.50;96.00
11246;DHT22;59870;50.106;8.580;2023-09-19T05:17:51;20.50;96.00
11246;DHT22;59870;50.106;8.580;2023-09-19T05:20:24;20.40;96.10
11246;DHT22;59870;50.106;8.580;2023-09-19T05:23:01;20.80;96.20
11246;DHT22;59870;50.106;8.580;2023-09-19T05:25:34;20.40;95.80
11246;DHT22;59870;50.106;8.580;2023-09-19T05:28:07;20.50;95.80
11246;DHT22;59870;50.106;8.580;2023-09-19T05:30:36;20.50;96.20
11246;DHT22;59870;50.106;8.580;2023-09-19T05:33:05;20.40;95.80
11246;DHT22;59870;50.106;8.580;2023-09-19T05:35:33;20.40;95.80
11246;DHT22;59870;50.106;8.580;2023-09-19T05:38:00;20.40;95.80
11246;DHT22;59870;50.106;8.580;2023-09-19T05:40:28;20.40;95.90
11246;DHT22;59870;50.106;8.580;2023-09-19T05:42:55;20.40;95.90
11246;DHT22;59870;50.106;8.580;2023-09-19T05:45:23;20.30;95.80
11246;DHT22;59870;50.106;8.580;2023-09-19T05:47:51;20.30;96.00
11246;DHT22;59870;50.106;8.580;2023-09-19T05:50:19;20.40;96.30
11246;DHT22;59870;50.106;8.580;2023-09-19T05:52:54;20.30;96.00
11246;DHT22;59870;50.106;8.580;2023-09-19T05:55:25;20.40;96.00
11246;DHT22;59870;50.106;8.580;2023-09-19T05:57:54;20.40;95.90
11246;DHT22;59870;50.106;8.580;2023-09-19T06:00:22;20.40;95.90
11246;DHT22;59870;50.106;8.580;2023-09-19T06:02:55;20.40;95.80
11246;DHT22;59870;50.106;8.580;2023-09-19T06:05:26;20.40;95.90
11246;DHT22;59870;50.106;8.580;2023-09-19T06:07:54;20.40;95.60
11246;DHT22;59870;50.106;8.580;2023-09-19T06:10:22;20.40;95.50
11246;DHT22;59870;50.106;8.580;2023-09-19T06:12:50;20.40;95.60
11246;DHT22;59870;50.106;8.580;2023-09-19T06:15:18;20.40;95.50
11246;DHT22;59870;50.106;8.580;2023-09-19T06:17:52;20.40;95.40
11246;DHT22;59870;50.106;8.580;2023-09-19T06:20:27;20.50;95.40
11246;DHT22;59870;50.106;8.580;2023-09-19T06:22:55;20.50;95.30
11246;DHT22;59870;50.106;8.580;2023-09-19T06:25:24;20.50;95.30
11246;DHT22;59870;50.106;8.580;2023-09-19T06:27:53;20.60;95.20
11246;DHT22;59870;50.106;8.580;2023-09-19T06:30:24;20.60;95.20
11246;DHT22;59870;50.106;8.580;2023-09-19T06:32:57;20.60;95.30
11246;DHT22;59870;50.106;8.580;2023-09-19T06:35:25;20.60;95.60
11246;DHT22;59870;50.106;8.580;2023-09-19T06:37:53;20.70;95.30
11246;DHT22;59870;50.106;8.580;2023-09-19T06:40:21;20.70;95.40
11246;DHT22;59870;50.106;8.580;2023-09-19T06:42:52;20.80;95.40
11246;DHT22;59870;50.106;8.580;2023-09-19T06:45:21;20.90;95.40
11246;DHT22;59870;50.106;8.580;2023-09-19T06:47:50;20.90;95.50
11246;DHT22;59870;50.106;8.580;2023-09-19T06:50:22;21.00;95.20
11246;DHT22;59870;50.106;8.580;2023-09-19T06:52:52;21.00;95.40
11246;DHT22;59870;50.106;8.580;2023-09-19T06:55:21;21.10;95.20
11246;DHT22;59870;50.106;8.580;2023-09-19T06:57:52;21.20;94.90
11246;DHT22;59870;50.106;8.580;2023-09-19T07:00:22;21.20;94.70
11246;DHT22;59870;50.106;8.580;2023-09-19T07:03:00;21.30;94.90
11246;DHT22;59870;50.106;8.580;2023-09-19T07:05:29;21.40;94.80
11246;DHT22;59870;50.106;8.580;2023-09-19T07:07:58;21.50;94.60
11246;DHT22;59870;50.106;8.580;2023-09-19T07:10:30;21.60;94.40
11246;DHT22;59870;50.106;8.580;2023-09-19T07:13:02;21.70;94.10
11246;DHT22;59870;50.106;8.580;2023-09-19T07:15:33;21.80;94.40
11246;DHT22;59870;50.106;8.580;2023-09-19T07:18:06;21.90;93.90
11246;DHT22;59870;50.106;8.580;2023-09-19T07:20:34;22.00;93.40
11246;DHT22;59870;50.106;8.580;2023-09-19T07:23:02;22.10;93.20
11246;DHT22;59870;50.106;8.580;2023-09-19T07:25:30;22.30;93.20
11246;DHT22;59870;50.106;8.580;2023-09-19T07:27:58;22.30;93.00
11246;DHT22;59870;50.106;8.580;2023-09-19T07:30:28;22.50;92.50
11246;DHT22;59870;50.106;8.580;2023-09-19T07:32:57;22.80;92.10
11246;DHT22;59870;50.106;8.580;2023-09-19T07:35:25;22.60;91.60
11246;DHT22;59870;50.106;8.580;2023-09-19T07:37:53;22.70;91.50
11246;DHT22;59870;50.106;8.580;2023-09-19T07:40:21;22.80;91.50
11246;DHT22;59870;50.106;8.580;2023-09-19T07:42:49;22.90;91.30
11246;DHT22;59870;50.106;8.580;2023-09-19T07:45:19;23.00;91.10
11246;DHT22;59870;50.106;8.580;2023-09-19T07:47:47;23.50;91.30
11246;DHT22;59870;50.106;8.580;2023-09-19T07:50:19;23.20;90.60
11246;DHT22;59870;50.106;8.580;2023-09-19T07:52:50;23.20;90.50
11246;DHT22;59870;50.106;8.580;2023-09-19T07:55:22;23.40;90.50
11246;DHT22;59870;50.106;8.580;2023-09-19T07:57:55;23.50;89.10
11246;DHT22;59870;50.106;8.580;2023-09-19T08:00:23;23.70;88.50
11246;DHT22;59870;50.106;8.580;2023-09-19T08:02:50;23.70;89.20
11246;DHT22;59870;50.106;8.580;2023-09-19T08:05:30;24.10;88.80
11246;DHT22;59870;50.106;8.580;2023-09-19T08:07:58;24.00;88.30
11246;DHT22;59870;50.106;8.580;2023-09-19T08:10:26;24.10;88.30
11246;DHT22;59870;50.106;8.580;2023-09-19T08:12:55;24.30;87.50
11246;DHT22;59870;50.106;8.580;2023-09-19T08:15:25;24.40;86.70
11246;DHT22;59870;50.106;8.580;2023-09-19T08:17:53;24.60;86.00
11246;DHT22;59870;50.106;8.580;2023-09-19T08:20:21;24.80;84.50
11246;DHT22;59870;50.106;8.580;2023-09-19T08:22:50;24.90;83.60
11246;DHT22;59870;50.106;8.580;2023-09-19T08:25:24;25.10;82.20
11246;DHT22;59870;50.106;8.580;2023-09-19T08:27:56;25.10;82.20
11246;DHT22;59870;50.106;8.580;2023-09-19T08:30:25;25.50;81.80
11246;DHT22;59870;50.106;8.580;2023-09-19T08:32:58;25.60;79.10
11246;DHT22;59870;50.106;8.580;2023-09-19T08:35:28;25.30;78.80
11246;DHT22;59870;50.106;8.580;2023-09-19T08:37:59;25.40;78.90
11246;DHT22;59870;50.106;8.580;2023-09-19T08:40:32;25.50;78.80
11246;DHT22;59870;50.106;8.580;2023-09-19T08:43:01;25.60;78.20
11246;DHT22;59870;50.106;8.580;2023-09-19T08:45:28;25.60;77.40
11246;DHT22;59870;50.106;8.580;2023-09-19T08:50:54;25.80;76.90
11246;DHT22;59870;50.106;8.580;2023-09-19T08:53:30;26.00;75.60
11246;DHT22;59870;50.106;8.580;2023-09-19T08:56:00;26.10;73.70
11246;DHT22;59870;50.106;8.580;2023-09-19T08:58:34;26.20;71.20
11246;DHT22;59870;50.106;8.580;2023-09-19T09:01:05;26.30;71.30
11246;DHT22;59870;50.106;8.580;2023-09-19T09:03:34;26.40;70.10
11246;DHT22;59870;50.106;8.580;2023-09-19T09:06:03;26.60;71.50
11246;DHT22;59870;50.106;8.580;2023-09-19T09:08:31;27.00;68.90
11246;DHT22;59870;50.106;8.580;2023-09-19T09:10:59;27.20;69.30
11246;DHT22;59870;50.106;8.580;2023-09-19T09:13:27;27.10;67.80
11246;DHT22;59870;50.106;8.580;2023-09-19T09:15:59;27.30;65.80
11246;DHT22;59870;50.106;8.580;2023-09-19T09:18:28;27.40;63.90
11246;DHT22;59870;50.106;8.580;2023-09-19T09:20:57;27.40;66.10
11246;DHT22;59870;50.106;8.580;2023-09-19T09:23:27;27.80;65.50
11246;DHT22;59870;50.106;8.580;2023-09-19T09:25:59;27.80;64.80
11246;DHT22;59870;50.106;8.580;2023-09-19T09:28:34;27.80;63.90
11246;DHT22;59870;50.106;8.580;2023-09-19T09:31:03;28.20;63.20
11246;DHT22;59870;50.106;8.580;2023-09-19T09:33:36;28.20;62.80
11246;DHT22;59870;50.106;8.580;2023-09-19T09:36:04;28.00;62.10
11246;DHT22;59870;50.106;8.580;2023-09-19T09:41:11;28.20;63.10
11246;DHT22;59870;50.106;8.580;2023-09-19T09:43:43;28.00;59.80
11246;DHT22;59870;50.106;8.580;2023-09-19T09:46:19;28.00;60.70
11246;DHT22;59870;50.106;8.580;2023-09-19T09:51:49;27.90;60.00
11246;DHT22;59870;50.106;8.580;2023-09-19T09:54:29;27.90;60.10
11246;DHT22;59870;50.106;8.580;2023-09-19T09:57:08;27.90;59.10
11246;DHT22;59870;50.106;8.580;2023-09-19T09:59:49;27.80;59.10
11246;DHT22;59870;50.106;8.580;2023-09-19T10:02:19;27.70;58.40
11246;DHT22;59870;50.106;8.580;2023-09-19T10:04:55;27.60;58.30
11246;DHT22;59870;50.106;8.580;2023-09-19T10:07:42;27.50;58.90
11246;DHT22;59870;50.106;8.580;2023-09-19T10:10:33;27.50;57.50
11246;DHT22;59870;50.106;8.580;2023-09-19T10:13:08;27.30;59.80
11246;DHT22;59870;50.106;8.580;2023-09-19T10:15:43;27.50;59.20
11246;DHT22;59870;50.106;8.580;2023-09-19T10:18:22;27.20;59.60
11246;DHT22;59870;50.106;8.580;2023-09-19T10:20:51;27.20;59.50
11246;DHT22;59870;50.106;8.580;2023-09-19T10:23:20;27.10;58.80
11246;DHT22;59870;50.106;8.580;2023-09-19T10:25:52;27.10;58.50
11246;DHT22;59870;50.106;8.580;2023-09-19T10:28:21;27.00;59.30
11246;DHT22;59870;50.106;8.580;2023-09-19T10:30:52;27.00;59.50
11246;DHT22;59870;50.106;8.580;2023-09-19T10:33:23;27.00;59.60
11246;DHT22;59870;50.106;8.580;2023-09-19T10:35:54;27.20;59.20
11246;DHT22;59870;50.106;8.580;2023-09-19T10:38:25;27.00;57.90
11246;DHT22;59870;50.106;8.580;2023-09-19T10:40:57;26.90;59.50
11246;DHT22;59870;50.106;8.580;2023-09-19T10:43:33;27.10;58.30
11246;DHT22;59870;50.106;8.580;2023-09-19T10:46:07;26.70;59.00
11246;DHT22;59870;50.106;8.580;2023-09-19T10:48:39;26.70;58.70
11246;DHT22;59870;50.106;8.580;2023-09-19T10:51:18;26.70;60.00
11246;DHT22;59870;50.106;8.580;2023-09-19T10:56:21;26.70;58.80
11246;DHT22;59870;50.106;8.580;2023-09-19T10:58:51;26.70;58.40
11246;DHT22;59870;50.106;8.580;2023-09-19T11:01:19;26.60;59.00
11246;DHT22;59870;50.106;8.580;2023-09-19T11:03:48;26.90;58.30
11246;DHT22;59870;50.106;8.580;2023-09-19T11:06:19;26.90;59.10
11246;DHT22;59870;50.106;8.580;2023-09-19T11:09:03;26.70;58.20
11246;DHT22;59870;50.106;8.580;2023-09-19T11:11:44;26.60;58.20
11246;DHT22;59870;50.106;8.580;2023-09-19T11:30:37;26.60;55.80
11246;DHT22;59870;50.106;8.580;2023-09-19T11:33:20;26.60;56.30
11246;DHT22;59870;50.106;8.580;2023-09-19T11:36:14;26.60;57.80
11246;DHT22;59870;50.106;8.580;2023-09-19T11:46:34;26.60;57.30
11246;DHT22;59870;50.106;8.580;2023-09-19T11:49:16;26.60;57.50
11246;DHT22;59870;50.106;8.580;2023-09-19T11:51:48;26.70;56.80
11246;DHT22;59870;50.106;8.580;2023-09-19T11:54:18;26.60;56.60
11246;DHT22;59870;50.106;8.580;2023-09-19T11:56:50;27.00;56.50
11246;DHT22;59870;50.106;8.580;2023-09-19T11:59:26;26.70;55.80
11246;DHT22;59870;50.106;8.580;2023-09-19T12:01:57;26.70;56.20
11246;DHT22;59870;50.106;8.580;2023-09-19T12:04:42;26.70;56.70
11246;DHT22;59870;50.106;8.580;2023-09-19T12:07:14;26.70;55.80
11246;DHT22;59870;50.106;8.580;2023-09-19T12:09:45;26.70;53.90
11246;DHT22;59870;50.106;8.580;2023-09-19T12:12:25;26.90;54.10
11246;DHT22;59870;50.106;8.580;2023-09-19T12:14:55;26.60;56.20
11246;DHT22;59870;50.106;8.580;2023-09-19T12:17:38;26.70;55.20
11246;DHT22;59870;50.106;8.580;2023-09-19T12:20:09;26.70;56.70
11246;DHT22;59870;50.106;8.580;2023-09-19T12:22:45;26.50;55.20
11246;DHT22;59870;50.106;8.580;2023-09-19T12:25:14;26.50;53.30
11246;DHT22;59870;50.106;8.580;2023-09-19T12:27:45;26.60;55.60
11246;DHT22;59870;50.106;8.580;2023-09-19T12:30:17;26.80;55.40
11246;DHT22;59870;50.106;8.580;2023-09-19T12:32:55;26.60;55.20
11246;DHT22;59870;50.106;8.580;2023-09-19T12:35:32;26.60;54.50
11246;DHT22;59870;50.106;8.580;2023-09-19T12:38:03;26.60;56.30
11246;DHT22;59870;50.106;8.580;2023-09-19T12:40:33;26.90;56.90
11246;DHT22;59870;50.106;8.580;2023-09-19T12:43:03;26.70;55.40
11246;DHT22;59870;50.106;8.580;2023-09-19T12:45:31;26.80;54.10
11246;DHT22;59870;50.106;8.580;2023-09-19T12:48:25;26.60;55.20
11246;DHT22;59870;50.106;8.580;2023-09-19T12:51:09;26.50;55.60
11246;DHT22;59870;50.106;8.580;2023-09-19T12:53:42;26.50;54.50
11246;DHT22;59870;50.106;8.580;2023-09-19T12:56:13;26.40;53.90
11246;DHT22;59870;50.106;8.580;2023-09-19T12:58:57;26.40;54.90
11246;DHT22;59870;50.106;8.580;2023-09-19T13:01:26;26.30;54.80
11246;DHT22;59870;50.106;8.580;2023-09-19T13:06:47;26.30;54.30
11246;DHT22;59870;50.106;8.580;2023-09-19T13:09:19;26.30;53.80
11246;DHT22;59870;50.106;8.580;2023-09-19T13:11:48;26.30;54.20
11246;DHT22;59870;50.106;8.580;2023-09-19T13:14:26;26.60;53.30
11246;DHT22;59870;50.106;8.580;2023-09-19T13:17:06;26.30;52.90
11246;DHT22;59870;50.106;8.580;2023-09-19T13:19:51;26.30;54.30
11246;DHT22;59870;50.106;8.580;2023-09-19T13:22:44;26.60;54.50
11246;DHT22;59870;50.106;8.580;2023-09-19T13:25:21;26.30;54.30
11246;DHT22;59870;50.106;8.580;2023-09-19T13:27:54;26.30;53.70
11246;DHT22;59870;50.106;8.580;2023-09-19T13:30:24;26.20;53.10
11246;DHT22;59870;50.106;8.580;2023-09-19T13:33:03;26.20;53.60
11246;DHT22;59870;50.106;8.580;2023-09-19T13:35:32;26.20;53.30
11246;DHT22;59870;50.106;8.580;2023-09-19T13:38:00;26.40;53.10
11246;DHT22;59870;50.106;8.580;2023-09-19T13:40:28;26.30;54.00
11246;DHT22;59870;50.106;8.580;2023-09-19T13:42:58;26.30;53.60
11246;DHT22;59870;50.106;8.580;2023-09-19T13:45:26;26.30;53.00
11246;DHT22;59870;50.106;8.580;2023-09-19T13:47:54;26.50;53.20
11246;DHT22;59870;50.106;8.580;2023-09-19T13:50:22;26.50;54.70
11246;DHT22;59870;50.106;8.580;2023-09-19T13:52:52;26.30;53.20
11246;DHT22;59870;50.106;8.580;2023-09-19T13:55:22;26.40;53.90
11246;DHT22;59870;50.106;8.580;2023-09-19T13:57:49;26.20;54.50
11246;DHT22;59870;50.106;8.580;2023-09-19T14:00:23;26.20;54.20
11246;DHT22;59870;50.106;8.580;2023-09-19T14:02:50;26.20;54.20
11246;DHT22;59870;50.106;8.580;2023-09-19T14:05:19;26.50;54.00
11246;DHT22;59870;50.106;8.580;2023-09-19T14:07:48;26.30;54.10
11246;DHT22;59870;50.106;8.580;2023-09-19T14:10:16;26.30;54.10
11246;DHT22;59870;50.106;8.580;2023-09-19T14:12:45;26.40;52.50
11246;DHT22;59870;50.106;8.580;2023-09-19T14:15:13;26.30;54.70
11246;DHT22;59870;50.106;8.580;2023-09-19T14:17:41;26.40;53.50
11246;DHT22;59870;50.106;8.580;2023-09-19T14:20:10;26.60;53.60
11246;DHT22;59870;50.106;8.580;2023-09-19T14:22:38;26.30;53.30
11246;DHT22;59870;50.106;8.580;2023-09-19T14:25:06;26.30;52.40
11246;DHT22;59870;50.106;8.580;2023-09-19T14:27:34;26.40;52.60
11246;DHT22;59870;50.106;8.580;2023-09-19T14:30:01;26.30;52.90
11246;DHT22;59870;50.106;8.580;2023-09-19T14:32:29;26.30;53.70
11246;DHT22;59870;50.106;8.580;2023-09-19T14:34:56;26.60;52.30
11246;DHT22;59870;50.106;8.580;2023-09-19T14:37:24;26.50;52.10
11246;DHT22;59870;50.106;8.580;2023-09-19T14:39:51;26.20;52.70
11246;DHT22;59870;50.106;8.580;2023-09-19T14:42:20;26.40;52.70
11246;DHT22;59870;50.106;8.580;2023-09-19T14:44:47;26.20;52.80
11246;DHT22;59870;50.106;8.580;2023-09-19T14:47:16;26.20;53.00
11246;DHT22;59870;50.106;8.580;2023-09-19T14:49:46;26.60;53.30
11246;DHT22;59870;50.106;8.580;2023-09-19T14:52:14;26.50;52.70
11246;DHT22;59870;50.106;8.580;2023-09-19T14:54:43;26.20;53.10
11246;DHT22;59870;50.106;8.580;2023-09-19T14:57:10;26.20;53.20
11246;DHT22;59870;50.106;8.580;2023-09-19T14:59:38;26.20;52.90
11246;DHT22;59870;50.106;8.580;2023-09-19T15:02:07;26.20;53.10
11246;DHT22;59870;50.106;8.580;2023-09-19T15:04:35;26.30;53.50
11246;DHT22;59870;50.106;8.580;2023-09-19T15:07:03;26.20;53.50
11246;DHT22;59870;50.106;8.580;2023-09-19T15:09:30;26.10;53.70
11246;DHT22;59870;50.106;8.580;2023-09-19T15:12:00;26.20;54.00
11246;DHT22;59870;50.106;8.580;2023-09-19T15:14:28;26.40;54.00
11246;DHT22;59870;50.106;8.580;2023-09-19T15:16:56;26.50;54.10
11246;DHT22;59870;50.106;8.580;2023-09-19T15:19:24;26.20;53.70
11246;DHT22;59870;50.106;8.580;2023-09-19T15:21:52;26.10;53.80
11246;DHT22;59870;50.106;8.580;2023-09-19T15:24:19;26.10;54.00
11246;DHT22;59870;50.106;8.580;2023-09-19T15:26:47;26.10;54.30
11246;DHT22;59870;50.106;8.580;2023-09-19T15:29:15;26.10;53.80
11246;DHT22;59870;50.106;8.580;2023-09-19T15:31:43;26.10;54.60
11246;DHT22;59870;50.106;8.580;2023-09-19T15:34:11;26.30;54.50
11246;DHT22;59870;50.106;8.580;2023-09-19T15:36:41;26.30;54.60
11246;DHT22;59870;50.106;8.580;2023-09-19T15:39:09;26.00;54.70
11246;DHT22;59870;50.106;8.580;2023-09-19T15:41:40;26.10;54.50
11246;DHT22;59870;50.106;8.580;2023-09-19T15:44:26;26.10;54.10
11246;DHT22;59870;50.106;8.580;2023-09-19T15:46:54;26.10;54.50
11246;DHT22;59870;50.106;8.580;2023-09-19T15:49:21;26.30;54.70
11246;DHT22;59870;50.106;8.580;2023-09-19T15:51:50;26.10;54.90
11246;DHT22;59870;50.106;8.580;2023-09-19T15:54:17;26.00;55.00
11246;DHT22;59870;50.106;8.580;2023-09-19T15:56:45;26.10;55.20
11246;DHT22;59870;50.106;8.580;2023-09-19T15:59:14;26.30;55.00
11246;DHT22;59870;50.106;8.580;2023-09-19T16:01:43;26.30;55.40
11246;DHT22;59870;50.106;8.580;2023-09-19T16:04:11;26.00;54.90
11246;DHT22;59870;50.106;8.580;2023-09-19T16:06:41;25.90;55.40
11246;DHT22;59870;50.106;8.580;2023-09-19T16:09:09;25.80;55.30
11246;DHT22;59870;50.106;8.580;2023-09-19T16:11:37;25.90;55.20
11246;DHT22;59870;50.106;8.580;2023-09-19T16:14:05;25.90;55.30
11246;DHT22;59870;50.106;8.580;2023-09-19T16:16:38;25.90;55.90
11246;DHT22;59870;50.106;8.580;2023-09-19T16:19:05;26.10;56.00
11246;DHT22;59870;50.106;8.580;2023-09-19T16:21:38;26.00;56.30
11246;DHT22;59870;50.106;8.580;2023-09-19T16:24:08;26.10;56.80
11246;DHT22;59870;50.106;8.580;2023-09-19T16:26:38;25.80;56.50
11246;DHT22;59870;50.106;8.580;2023-09-19T16:29:05;25.80;57.20
11246;DHT22;59870;50.106;8.580;2023-09-19T16:31:33;25.80;56.90
11246;DHT22;59870;50.106;8.580;2023-09-19T16:34:01;25.80;58.10
11246;DHT22;59870;50.106;8.580;2023-09-19T16:36:29;25.70;57.10
11246;DHT22;59870;50.106;8.580;2023-09-19T16:38:56;25.70;57.40
11246;DHT22;59870;50.106;8.580;2023-09-19T16:41:24;26.00;57.60
11246;DHT22;59870;50.106;8.580;2023-09-19T16:43:52;25.70;57.70
11246;DHT22;59870;50.106;8.580;2023-09-19T16:46:19;25.70;58.50
11246;DHT22;59870;50.106;8.580;2023-09-19T16:48:47;25.70;57.50
11246;DHT22;59870;50.106;8.580;2023-09-19T16:51:31;25.70;57.50